Nearby METAR Reports

 

TNCA - Queen Beatrix, Lesser Antilles
Distance from station: 0 0km
Updated: 12/12/2018 08:00
Few Clouds
Few Clouds
 Wind from E
Wind: E 24 km/h
Temperature: 27°C
Heat Index: 30°C
Dew Point: 23°C
Humidity: 79%
Barometer: 1015 hPa
Clouds: Few Clouds
Visibility: 10 km
Cloud details: Few Clouds 549 m
2018/12/12 12:00 TNCA 121200Z 10013KT 9999 FEW018 27/23 Q1015 NOSIG
SVJC - Paraguana/Josefa, Venezuela
Distance from station: S 83km
Updated: 23/06/2018 06:00
NOT Current

 
2018/06/23 10:00 SVJC 231000Z NI
 
TNCC - Hato Air Curacao, Lesser Antilles
Distance from station: ESE 117km
Updated: 12/12/2018 08:00
Partly Cloudy
Partly Cloudy
 Wind from ESE
Wind: ESE 20 km/h
Temperature: 27°C
Heat Index: 29°C
Dew Point: 22°C
Humidity: 74%
Barometer: 1015 hPa
Clouds: Partly Cloudy
Visibility: 10 km
2018/12/12 12:00 TNCC 121200Z AUTO 12011KT 9999 NSC 27/22 Q1015 NOSIG
SVCR - Coro/Jose Leonar, Venezuela
Distance from station: SSE 126km
Updated: 13/11/2018 08:00
NOT Current
Few Clouds
Few Clouds
 Wind from varies
Wind: varies 0 km/h
Temperature: 28°C
Heat Index: 32°C
Dew Point: 24°C
Humidity: 79%
Barometer: 1012 hPa
Clouds: Few Clouds
Visibility: 10 km
Cloud details: Few Clouds 488 m
2018/11/13 12:00 SVCR 131200Z /////KT 9999 FEW016 28/24 Q1012
 
TNCB - Bonaire/Flamingo, Lesser Antilles
Distance from station: ESE 191km
Updated: 12/12/2018 07:55
Clear
Clear
 Wind from E
Wind: E 28 km/h
Temperature: 27°C
Heat Index: 29°C
Dew Point: 22°C
Humidity: 74%
Barometer: 1015 hPa
Clouds: Clear
Visibility: 10 km
2018/12/12 11:55 TNCB 121155Z AUTO 10015KT 080V150 9999 NCD 27/22 Q1015
SVMC - Maracaibo/La Chi, Venezuela
Distance from station: SW 285km
Updated: 19/09/2018 19:00
NOT Current
Mostly Cloudy
Mostly Cloudy
 Wind from NE
Wind: NE 6 km/h
Temperature: 31°C
Heat Index: 39°C
Dew Point: 26°C
Humidity: 75%
Barometer: 1008 hPa
Clouds: Mostly Cloudy
Visibility: 10 km
Cloud details: Mostly Cloudy 396 m
2018/09/19 23:00 SVMC 192300Z 05003KT 9999 BKN013 31/26 Q1008